createdAt,value
2019-01-28T00:00:36.196Z,0.70
2019-01-28T00:03:04.012Z,1.00
2019-01-28T00:05:30.340Z,0.85
2019-01-28T00:07:56.765Z,0.95
2019-01-28T00:10:23.180Z,0.72
2019-01-28T00:12:49.633Z,0.82
2019-01-28T00:15:16.041Z,0.88
2019-01-28T00:17:42.373Z,1.00
2019-01-28T00:20:08.786Z,0.80
2019-01-28T00:22:35.097Z,1.20
2019-01-28T00:25:01.530Z,0.82
2019-01-28T00:27:27.946Z,0.70
2019-01-28T00:29:54.384Z,0.80
2019-01-28T00:32:21.006Z,0.98
2019-01-28T00:34:47.305Z,1.10
2019-01-28T00:37:13.762Z,0.90
2019-01-28T00:39:40.165Z,0.82
2019-01-28T00:42:06.802Z,0.60
2019-01-28T00:44:33.328Z,0.90
2019-01-28T00:46:59.640Z,0.98
2019-01-28T00:49:25.973Z,0.95
2019-01-28T00:51:54.172Z,0.90
2019-01-28T00:54:20.575Z,0.90
2019-01-28T00:56:46.894Z,0.78
2019-01-28T00:59:13.172Z,0.75
2019-01-28T01:01:39.505Z,0.80
2019-01-28T01:04:05.925Z,0.72
2019-01-28T01:06:32.340Z,0.90
2019-01-28T01:08:58.647Z,0.90
2019-01-28T01:11:24.953Z,0.80
2019-01-28T01:13:51.602Z,0.80
2019-01-28T01:16:18.018Z,1.00
2019-01-28T01:18:44.322Z,0.80
2019-01-28T01:21:10.793Z,0.60
2019-01-28T01:23:37.194Z,1.00
2019-01-28T01:26:03.644Z,0.98
2019-01-28T01:28:30.125Z,0.82
2019-01-28T01:30:56.442Z,0.90
2019-01-28T01:33:22.858Z,1.05
2019-01-28T01:35:49.360Z,0.95
2019-01-28T01:38:15.677Z,0.70
2019-01-28T01:40:42.093Z,0.93
2019-01-28T01:43:08.496Z,0.90
2019-01-28T01:45:34.785Z,0.78
2019-01-28T01:48:01.191Z,0.60
2019-01-28T01:50:27.976Z,0.60
2019-01-28T01:52:54.709Z,1.00
2019-01-28T01:55:21.132Z,0.90
2019-01-28T01:57:47.520Z,1.00
2019-01-28T02:00:16.271Z,0.85
2019-01-28T02:02:42.802Z,0.75
2019-01-28T02:05:09.757Z,0.53
2019-01-28T02:07:36.168Z,0.57
2019-01-28T02:10:05.169Z,0.80
2019-01-28T02:12:31.668Z,0.78
2019-01-28T02:14:57.999Z,0.70
2019-01-28T02:17:24.393Z,0.80
2019-01-28T02:19:51.008Z,0.80
2019-01-28T02:22:17.414Z,1.30
2019-01-28T02:24:43.861Z,0.93
2019-01-28T02:27:10.397Z,0.60
2019-01-28T02:29:36.697Z,0.72
2019-01-28T02:32:03.209Z,0.85
2019-01-28T02:34:29.608Z,0.78
2019-01-28T02:36:55.932Z,0.88
2019-01-28T02:39:22.464Z,0.75
2019-01-28T02:41:49.435Z,0.80
2019-01-28T02:44:15.982Z,0.80
2019-01-28T02:46:42.288Z,0.60
2019-01-28T02:49:08.709Z,0.60
2019-01-28T02:51:35.066Z,0.60
2019-01-28T02:54:01.687Z,0.80
2019-01-28T02:56:28.011Z,0.93
2019-01-28T02:58:54.754Z,0.70
2019-01-28T03:01:21.597Z,0.98
2019-01-28T03:03:48.031Z,0.53
2019-01-28T03:06:14.566Z,0.70
2019-01-28T03:08:40.887Z,1.37
2019-01-28T03:11:07.837Z,0.60
2019-01-28T03:13:34.237Z,0.70
2019-01-28T03:16:00.982Z,0.57
2019-01-28T03:18:27.246Z,1.27
2019-01-28T03:20:53.560Z,0.70
2019-01-28T03:23:21.372Z,0.60
2019-01-28T03:25:47.788Z,0.60
2019-01-28T03:28:14.629Z,0.80
2019-01-28T03:30:41.034Z,0.70
2019-01-28T03:33:07.679Z,0.90
2019-01-28T03:35:34.189Z,0.55
2019-01-28T03:38:00.485Z,0.70
2019-01-28T03:40:27.125Z,0.80
2019-01-28T03:42:53.520Z,0.72
2019-01-28T03:45:21.556Z,0.40
2019-01-28T03:47:47.854Z,0.75
2019-01-28T03:50:15.970Z,0.75
2019-01-28T03:52:42.366Z,0.90
2019-01-28T03:55:10.615Z,0.68
2019-01-28T03:57:37.072Z,0.50
2019-01-28T04:00:10.326Z,0.88
2019-01-28T04:02:36.823Z,0.93
2019-01-28T04:05:06.538Z,0.80
2019-01-28T04:07:33.193Z,0.60
2019-01-28T04:09:59.844Z,0.82
2019-01-28T04:12:26.343Z,0.93
2019-01-28T04:14:52.661Z,0.68
2019-01-28T04:17:18.975Z,0.60
2019-01-28T04:19:45.692Z,0.70
2019-01-28T04:22:12.109Z,0.70
2019-01-28T04:24:39.065Z,0.75
2019-01-28T04:27:05.384Z,0.80
2019-01-28T04:29:32.001Z,0.70
2019-01-28T04:31:58.528Z,0.88
2019-01-28T04:34:24.853Z,0.70
2019-01-28T04:36:51.146Z,0.55
2019-01-28T04:39:17.661Z,0.85
2019-01-28T04:41:43.961Z,1.22
2019-01-28T04:44:10.294Z,0.72
2019-01-28T04:46:36.938Z,0.55
2019-01-28T04:49:03.562Z,1.00
2019-01-28T04:51:30.779Z,0.80
2019-01-28T04:53:57.482Z,1.00
2019-01-28T04:56:24.209Z,0.80
2019-01-28T04:58:50.763Z,0.60
2019-01-28T05:01:17.800Z,0.93
2019-01-28T05:03:44.459Z,0.80
2019-01-28T05:06:10.964Z,0.55
2019-01-28T05:08:37.601Z,0.88
2019-01-28T05:11:03.967Z,0.95
2019-01-28T05:13:30.356Z,0.60
2019-01-28T05:15:56.883Z,0.72
2019-01-28T05:18:23.196Z,0.57
2019-01-28T05:20:49.849Z,0.80
2019-01-28T05:23:16.292Z,0.62
2019-01-28T05:25:42.584Z,0.90
2019-01-28T05:28:09.197Z,0.82
2019-01-28T05:30:35.602Z,0.80
2019-01-28T05:33:02.315Z,0.70
2019-01-28T05:35:28.865Z,0.50
2019-01-28T05:37:55.167Z,0.65
2019-01-28T05:40:23.573Z,0.82
2019-01-28T05:42:49.977Z,0.80
2019-01-28T05:45:18.494Z,0.80
2019-01-28T05:47:44.961Z,0.57
2019-01-28T05:50:12.989Z,0.70
2019-01-28T05:52:39.311Z,0.62
2019-01-28T05:55:08.346Z,0.78
2019-01-28T05:57:34.645Z,0.72
2019-01-28T06:00:01.041Z,0.65
2019-01-28T06:02:27.478Z,0.98
2019-01-28T06:04:53.876Z,0.72
2019-01-28T06:07:20.273Z,1.00
2019-01-28T06:09:46.926Z,0.88
2019-01-28T06:12:13.709Z,1.00
2019-01-28T06:14:40.141Z,0.65
2019-01-28T06:17:06.711Z,0.90
2019-01-28T06:19:33.554Z,1.00
2019-01-28T06:22:00.102Z,0.80
2019-01-28T06:24:26.416Z,0.90
2019-01-28T06:26:52.997Z,0.60
2019-01-28T06:29:19.514Z,0.60
2019-01-28T06:31:45.928Z,0.80
2019-01-28T06:34:12.833Z,0.60
2019-01-28T06:36:39.119Z,0.60
2019-01-28T06:39:07.869Z,0.70
2019-01-28T06:41:34.166Z,0.98
2019-01-28T06:44:00.683Z,0.70
2019-01-28T06:46:27.312Z,0.85
2019-01-28T06:48:53.712Z,0.75
2019-01-28T06:51:20.248Z,1.25
2019-01-28T06:53:46.544Z,0.80
2019-01-28T06:56:13.065Z,0.80
2019-01-28T06:58:39.371Z,0.70
2019-01-28T07:01:05.877Z,0.62
2019-01-28T07:03:32.206Z,0.80
2019-01-28T07:05:58.517Z,0.65
2019-01-28T07:08:24.838Z,0.80
2019-01-28T07:10:51.261Z,0.98
2019-01-28T07:13:17.558Z,0.72
2019-01-28T07:15:44.094Z,0.60
2019-01-28T07:18:10.408Z,0.80
2019-01-28T07:20:36.797Z,0.85
2019-01-28T07:23:03.423Z,0.60
2019-01-28T07:25:29.716Z,0.98
2019-01-28T07:27:56.068Z,0.75
2019-01-28T07:30:28.078Z,0.90
2019-01-28T07:32:54.706Z,0.55
2019-01-28T07:35:21.596Z,0.88
2019-01-28T07:37:48.107Z,0.72
2019-01-28T07:40:14.933Z,1.12
2019-01-28T07:42:41.709Z,0.50
2019-01-28T07:45:17.479Z,1.02
2019-01-28T07:47:43.892Z,0.70
2019-01-28T07:50:10.703Z,0.70
2019-01-28T07:52:37.049Z,0.50
2019-01-28T07:55:04.718Z,0.80
2019-01-28T07:57:31.688Z,0.82
2019-01-28T07:59:58.208Z,0.93
2019-01-28T08:02:24.514Z,0.80
2019-01-28T08:04:51.033Z,0.53
2019-01-28T08:07:17.558Z,1.45
2019-01-28T08:09:43.988Z,1.02
2019-01-28T08:12:10.397Z,1.22
2019-01-28T08:14:36.797Z,1.85
2019-01-28T08:17:10.243Z,1.90
2019-01-28T08:19:36.561Z,3.35
2019-01-28T08:22:03.964Z,4.15
2019-01-28T08:24:31.730Z,3.45
2019-01-28T08:26:58.902Z,2.90
2019-01-28T08:29:25.224Z,2.83
2019-01-28T08:31:51.623Z,2.00
2019-01-28T08:34:17.946Z,2.25
2019-01-28T08:36:44.244Z,1.80
2019-01-28T08:39:11.213Z,1.92
2019-01-28T08:41:37.793Z,2.10
2019-01-28T08:44:04.099Z,1.60
2019-01-28T08:46:30.632Z,1.45
2019-01-28T08:48:57.029Z,1.37
2019-01-28T08:51:23.627Z,1.17
2019-01-28T08:53:50.037Z,2.20
2019-01-28T08:56:16.804Z,0.82
2019-01-28T08:58:43.761Z,0.82
2019-01-28T09:01:14.496Z,1.00
2019-01-28T09:03:46.082Z,0.98
2019-01-28T09:06:18.102Z,0.70
2019-01-28T09:08:49.973Z,0.88
2019-01-28T09:11:22.301Z,0.55
2019-01-28T09:13:55.588Z,0.88
2019-01-28T09:16:26.741Z,0.78
2019-01-28T09:18:57.137Z,0.47
2019-01-28T09:21:26.880Z,0.78
2019-01-28T09:23:58.508Z,0.62
2019-01-28T09:26:30.433Z,0.88
2019-01-28T09:28:56.679Z,0.68
2019-01-28T09:31:23.100Z,0.78
2019-01-28T09:33:49.502Z,0.60
2019-01-28T09:36:15.917Z,0.60
2019-01-28T09:38:42.310Z,0.33
2019-01-28T09:41:08.603Z,0.40
2019-01-28T09:43:35.159Z,0.50
2019-01-28T09:46:01.900Z,0.78
2019-01-28T09:48:34.141Z,0.47
2019-01-28T09:50:57.454Z,0.33
2019-01-28T09:53:29.230Z,0.40
2019-01-28T09:55:52.438Z,0.40
2019-01-28T09:58:18.958Z,0.47
2019-01-28T10:00:47.824Z,0.62
2019-01-28T10:03:14.127Z,0.47
2019-01-28T10:05:40.535Z,0.53
2019-01-28T10:08:07.656Z,0.47
2019-01-28T10:10:33.948Z,0.45
2019-01-28T10:13:04.232Z,0.60
2019-01-28T10:15:30.941Z,0.60
2019-01-28T10:17:57.235Z,0.62
2019-01-28T10:20:28.610Z,0.72
2019-01-28T10:22:54.937Z,0.70
2019-01-28T10:25:21.484Z,0.65
2019-01-28T10:27:47.796Z,0.93
2019-01-28T10:30:17.394Z,0.60
2019-01-28T10:32:43.720Z,0.72
2019-01-28T10:35:11.913Z,0.90
2019-01-28T10:37:38.696Z,0.50
2019-01-28T10:40:08.803Z,0.90
2019-01-28T10:42:35.201Z,0.70
2019-01-28T10:45:01.624Z,1.00
2019-01-28T10:47:28.130Z,1.15
2019-01-28T10:49:54.588Z,0.93
2019-01-28T10:52:21.088Z,1.22
2019-01-28T10:54:47.395Z,1.10
2019-01-28T10:57:13.940Z,1.17
2019-01-28T10:59:40.329Z,0.80
2019-01-28T11:02:07.018Z,1.10
2019-01-28T11:04:33.700Z,2.08
2019-01-28T11:07:00.217Z,1.90
2019-01-28T11:09:26.648Z,2.30
2019-01-28T11:11:53.109Z,1.90
2019-01-28T11:14:19.928Z,1.70
2019-01-28T11:16:46.250Z,1.65
2019-01-28T11:19:12.646Z,2.00
2019-01-28T11:21:38.937Z,1.52
2019-01-28T11:24:05.466Z,1.90
2019-01-28T11:26:32.005Z,1.67
2019-01-28T11:28:58.553Z,1.45
2019-01-28T11:31:25.114Z,1.72
2019-01-28T11:33:51.739Z,1.98
2019-01-28T11:36:18.705Z,1.62
2019-01-28T11:38:45.213Z,1.47
2019-01-28T11:41:11.661Z,2.25
2019-01-28T11:43:38.246Z,1.70
2019-01-28T11:46:04.509Z,2.10
2019-01-28T11:48:32.655Z,1.60
2019-01-28T11:50:59.124Z,2.22
2019-01-28T11:53:25.515Z,2.12
2019-01-28T11:55:52.033Z,3.42
2019-01-28T11:58:18.324Z,8.70
2019-01-28T12:00:55.081Z,7.40
2019-01-28T12:03:21.516Z,9.38
2019-01-28T12:05:47.924Z,9.68
2019-01-28T12:08:14.765Z,10.15
2019-01-28T12:10:41.468Z,12.18
2019-01-28T12:13:09.209Z,13.78
2019-01-28T12:15:35.779Z,15.18
2019-01-28T12:18:02.561Z,13.55
2019-01-28T12:20:29.489Z,13.60
2019-01-28T12:22:55.900Z,13.32
2019-01-28T12:25:22.532Z,12.13
2019-01-28T12:27:49.149Z,12.25
2019-01-28T12:30:21.061Z,11.90
2019-01-28T12:32:47.585Z,11.00
2019-01-28T12:35:14.219Z,11.55
2019-01-28T12:37:40.669Z,10.55
2019-01-28T12:40:14.750Z,10.88
2019-01-28T12:42:41.305Z,10.30
2019-01-28T12:45:11.527Z,8.58
2019-01-28T12:47:38.150Z,9.43
2019-01-28T12:50:10.642Z,8.75
2019-01-28T12:52:37.181Z,8.48
2019-01-28T12:55:07.357Z,8.95
2019-01-28T12:57:33.900Z,7.45
2019-01-28T13:01:13.168Z,7.55
2019-01-28T13:03:39.974Z,7.20
2019-01-28T13:06:06.833Z,7.03
2019-01-28T13:10:59.613Z,6.60
2019-01-28T13:13:25.949Z,5.78
2019-01-28T13:15:52.374Z,5.03
2019-01-28T13:18:18.661Z,5.60
2019-01-28T13:20:44.960Z,5.37
2019-01-28T13:23:11.257Z,4.25
2019-01-28T13:25:37.657Z,4.50
2019-01-28T13:28:05.578Z,4.87
2019-01-28T13:30:35.176Z,3.98
2019-01-28T13:33:01.471Z,4.20
2019-01-28T13:35:28.116Z,3.75
2019-01-28T13:37:56.324Z,3.90
2019-01-28T13:40:22.766Z,3.58
2019-01-28T13:42:49.144Z,3.20
2019-01-28T13:45:19.326Z,3.10
2019-01-28T13:47:45.953Z,2.72
2019-01-28T13:50:15.483Z,2.58
2019-01-28T13:52:41.917Z,2.45
2019-01-28T13:55:09.109Z,2.42
2019-01-28T13:57:35.860Z,1.82
2019-01-28T14:00:06.260Z,1.90
2019-01-28T14:02:32.680Z,2.25
2019-01-28T14:04:59.489Z,2.00
2019-01-28T14:07:26.114Z,1.95
2019-01-28T14:09:52.691Z,1.60
2019-01-28T14:12:19.359Z,1.80
2019-01-28T14:14:45.862Z,1.37
2019-01-28T14:17:12.411Z,1.98
2019-01-28T14:19:46.467Z,1.45
2019-01-28T14:22:11.757Z,1.65
2019-01-28T14:24:38.382Z,1.40
2019-01-28T14:27:04.800Z,1.30
2019-01-28T14:29:31.337Z,1.35
2019-01-28T14:31:57.672Z,1.30
2019-01-28T14:34:23.978Z,1.72
2019-01-28T14:36:50.805Z,1.12
2019-01-28T14:39:17.292Z,0.90
2019-01-28T14:41:43.739Z,0.95
2019-01-28T14:44:10.240Z,0.80
2019-01-28T14:46:36.658Z,0.90
2019-01-28T14:49:03.533Z,0.90
2019-01-28T14:51:29.941Z,0.95
2019-01-28T14:53:56.581Z,1.00
2019-01-28T14:56:23.124Z,0.80
2019-01-28T14:58:50.495Z,1.10
2019-01-28T15:01:17.021Z,1.20
2019-01-28T15:03:43.454Z,1.10
2019-01-28T15:06:09.880Z,1.20
2019-01-28T15:08:36.271Z,1.20
2019-01-28T15:11:02.905Z,1.00
2019-01-28T15:13:29.363Z,1.17
2019-01-28T15:15:55.662Z,0.93
2019-01-28T15:18:22.186Z,1.12
2019-01-28T15:20:48.590Z,0.93
2019-01-28T15:23:15.043Z,0.93
2019-01-28T15:25:41.404Z,0.93
2019-01-28T15:28:07.812Z,1.05
2019-01-28T15:30:34.323Z,0.90
2019-01-28T15:33:00.632Z,1.27
2019-01-28T15:35:26.901Z,0.80
2019-01-28T15:37:53.209Z,1.00
2019-01-28T15:40:28.784Z,1.67
2019-01-28T15:42:55.106Z,1.10
2019-01-28T15:45:24.001Z,1.87
2019-01-28T15:47:50.414Z,1.30
2019-01-28T15:50:17.468Z,1.22
2019-01-28T15:52:44.202Z,1.25
2019-01-28T15:55:16.994Z,1.20
2019-01-28T15:57:43.305Z,1.30
2019-01-28T16:00:15.898Z,1.07
2019-01-28T16:02:42.597Z,1.17
2019-01-28T16:05:09.189Z,1.00
2019-01-28T16:07:35.624Z,1.00
2019-01-28T16:10:02.446Z,0.98
2019-01-28T16:12:28.949Z,1.27
2019-01-28T16:14:55.298Z,1.10
2019-01-28T16:17:21.737Z,1.02
2019-01-28T16:19:48.791Z,1.15
2019-01-28T16:22:15.209Z,0.62
2019-01-28T16:24:41.989Z,0.50
2019-01-28T16:27:08.367Z,0.80
2019-01-28T16:29:34.721Z,0.80
2019-01-28T16:32:01.025Z,1.00
2019-01-28T16:34:27.440Z,0.93
2019-01-28T16:36:53.976Z,0.80
2019-01-28T16:39:20.489Z,0.98
2019-01-28T16:41:46.809Z,0.80
2019-01-28T16:44:13.548Z,0.78
2019-01-28T16:46:39.858Z,0.72
2019-01-28T16:49:06.405Z,0.78
2019-01-28T16:51:32.977Z,1.20
2019-01-28T16:53:59.292Z,1.15
2019-01-28T16:56:25.806Z,1.60
2019-01-28T16:58:52.426Z,1.02
2019-01-28T17:01:18.857Z,0.90
2019-01-28T17:03:45.277Z,1.05
2019-01-28T17:06:11.585Z,0.98
2019-01-28T17:08:37.888Z,0.80
2019-01-28T17:11:04.202Z,0.70
2019-01-28T17:13:30.823Z,1.12
2019-01-28T17:15:57.243Z,0.85
2019-01-28T17:18:23.874Z,1.10
2019-01-28T17:20:50.295Z,0.70
2019-01-28T17:23:16.818Z,0.82
2019-01-28T17:25:45.228Z,0.68
2019-01-28T17:28:11.648Z,0.55
2019-01-28T17:30:44.821Z,1.10
2019-01-28T17:33:11.234Z,0.70
2019-01-28T17:35:37.780Z,0.80
2019-01-28T17:38:05.634Z,1.20
2019-01-28T17:40:32.522Z,0.70
2019-01-28T17:42:58.946Z,0.70
2019-01-28T17:45:27.020Z,0.70
2019-01-28T17:47:53.655Z,0.60
2019-01-28T17:50:24.565Z,0.80
2019-01-28T17:52:48.447Z,1.00
2019-01-28T17:55:15.390Z,1.05
2019-01-28T17:57:42.058Z,0.85
2019-01-28T18:00:12.049Z,1.37
2019-01-28T18:02:38.736Z,0.68
2019-01-28T18:05:07.244Z,1.17
2019-01-28T18:07:33.653Z,1.10
2019-01-28T18:10:00.097Z,0.80
2019-01-28T18:12:26.505Z,1.10
2019-01-28T18:14:52.959Z,0.80
2019-01-28T18:17:19.280Z,0.88
2019-01-28T18:19:46.011Z,1.07
2019-01-28T18:22:12.791Z,0.93
2019-01-28T18:24:39.322Z,0.90
2019-01-28T18:27:05.754Z,1.47
2019-01-28T18:29:32.175Z,1.05
2019-01-28T18:31:58.607Z,1.40
2019-01-28T18:34:24.953Z,1.00
2019-01-28T18:36:51.655Z,1.05
2019-01-28T18:39:18.324Z,1.42
2019-01-28T18:41:44.838Z,1.15
2019-01-28T18:44:11.246Z,1.50
2019-01-28T18:46:37.903Z,1.50
2019-01-28T18:49:04.536Z,1.65
2019-01-28T18:51:31.289Z,1.25
2019-01-28T18:53:57.724Z,1.50
2019-01-28T18:56:24.257Z,1.02
2019-01-28T18:58:50.578Z,1.52
2019-01-28T19:01:17.036Z,1.60
2019-01-28T19:03:43.562Z,1.12
2019-01-28T19:08:36.008Z,1.52
2019-01-28T19:11:37.891Z,1.50
2019-01-28T19:14:06.213Z,2.55
2019-01-28T19:16:37.492Z,1.67
2019-01-28T19:19:08.703Z,1.40
2019-01-28T19:21:42.686Z,4.15
2019-01-28T19:24:16.006Z,3.77
2019-01-28T19:26:42.601Z,2.40
2019-01-28T19:29:15.180Z,2.70
2019-01-28T19:31:46.724Z,2.58
2019-01-28T19:34:13.485Z,2.30
2019-01-28T19:36:40.520Z,2.00
2019-01-28T19:39:07.756Z,2.02
2019-01-28T19:41:34.085Z,1.90
2019-01-28T19:44:00.525Z,1.40
2019-01-28T19:46:26.934Z,1.60
2019-01-28T19:48:53.540Z,0.90
2019-01-28T19:51:20.325Z,1.55
2019-01-28T19:53:46.847Z,1.02
2019-01-28T19:56:13.278Z,1.00
2019-01-28T19:58:39.894Z,0.95
2019-01-28T20:01:06.447Z,1.00
2019-01-28T20:03:32.883Z,1.10
2019-01-28T20:05:59.220Z,1.20
2019-01-28T20:08:25.661Z,1.20
2019-01-28T20:10:52.263Z,1.10
2019-01-28T20:13:18.819Z,1.07
2019-01-28T20:15:46.817Z,1.15
2019-01-28T20:18:14.988Z,1.10
2019-01-28T20:20:41.258Z,1.20
2019-01-28T20:23:08.162Z,1.02
2019-01-28T20:25:37.529Z,1.05
2019-01-28T20:28:03.872Z,1.30
2019-01-28T20:30:30.528Z,1.50
2019-01-28T20:32:56.943Z,1.40
2019-01-28T20:35:24.540Z,1.50
2019-01-28T20:37:50.895Z,1.35
2019-01-28T20:40:17.722Z,1.50
2019-01-28T20:42:44.281Z,1.70
2019-01-28T20:45:16.876Z,1.77
2019-01-28T20:47:43.434Z,1.72
2019-01-28T20:50:13.247Z,1.65
2019-01-28T20:52:39.588Z,1.70
2019-01-28T20:55:07.327Z,1.75
2019-01-28T20:57:33.773Z,1.98
2019-01-28T21:00:00.360Z,1.90
2019-01-28T21:02:26.879Z,1.92
2019-01-28T21:04:53.668Z,2.30
2019-01-28T21:07:20.112Z,2.30
2019-01-28T21:09:47.030Z,2.67
2019-01-28T21:12:13.737Z,2.45
2019-01-28T21:14:40.320Z,2.50
2019-01-28T21:17:06.819Z,2.55
2019-01-28T21:19:33.362Z,2.90
2019-01-28T21:21:59.685Z,3.00
2019-01-28T21:24:26.013Z,2.27
2019-01-28T21:26:52.432Z,2.20
2019-01-28T21:29:18.961Z,2.35
2019-01-28T21:31:45.408Z,2.90
2019-01-28T21:34:12.034Z,2.60
2019-01-28T21:36:40.367Z,3.00
2019-01-28T21:39:08.268Z,2.47
2019-01-28T21:41:34.984Z,2.27
2019-01-28T21:44:01.408Z,2.37
2019-01-28T21:46:27.817Z,2.77
2019-01-28T21:48:54.614Z,2.37
2019-01-28T21:51:21.135Z,2.35
2019-01-28T21:53:47.575Z,3.08
2019-01-28T21:56:14.333Z,3.00
2019-01-28T21:58:40.741Z,2.90
2019-01-28T22:01:07.286Z,2.52
2019-01-28T22:03:33.701Z,2.60
2019-01-28T22:06:00.549Z,2.70
2019-01-28T22:08:27.292Z,2.70
2019-01-28T22:10:53.837Z,2.80
2019-01-28T22:13:20.616Z,2.52
2019-01-28T22:15:47.203Z,2.42
2019-01-28T22:18:13.616Z,2.45
2019-01-28T22:20:40.028Z,3.30
2019-01-28T22:23:06.828Z,2.70
2019-01-28T22:25:33.758Z,2.42
2019-01-28T22:28:00.175Z,2.67
2019-01-28T22:30:26.585Z,2.85
2019-01-28T22:32:53.226Z,2.62
2019-01-28T22:35:19.633Z,2.35
2019-01-28T22:37:46.365Z,2.33
2019-01-28T22:40:14.964Z,2.65
2019-01-28T22:42:41.499Z,2.62
2019-01-28T22:45:11.421Z,2.77
2019-01-28T22:47:37.850Z,2.95
2019-01-28T22:50:08.010Z,2.70
2019-01-28T22:52:34.428Z,3.17
2019-01-28T22:55:01.072Z,2.67
2019-01-28T22:57:27.734Z,2.52
2019-01-28T22:59:54.152Z,2.58
2019-01-28T23:02:20.964Z,2.70
2019-01-28T23:04:47.849Z,2.60
2019-01-28T23:07:14.365Z,2.37
2019-01-28T23:09:40.809Z,3.60
2019-01-28T23:12:07.137Z,2.85
2019-01-28T23:14:33.457Z,2.90
2019-01-28T23:16:59.990Z,2.72
2019-01-28T23:19:26.297Z,2.70
2019-01-28T23:21:52.641Z,2.85
2019-01-28T23:24:18.937Z,3.40
2019-01-28T23:26:45.248Z,2.77
2019-01-28T23:29:11.654Z,2.62
2019-01-28T23:31:38.076Z,2.50
2019-01-28T23:34:04.474Z,3.22
2019-01-28T23:36:30.875Z,3.22
2019-01-28T23:38:57.301Z,2.52
2019-01-28T23:41:23.731Z,3.15
2019-01-28T23:43:50.196Z,3.60
2019-01-28T23:46:16.608Z,3.00
2019-01-28T23:48:43.320Z,3.30
2019-01-28T23:51:09.781Z,3.10
2019-01-28T23:53:36.293Z,3.00
2019-01-28T23:56:02.628Z,2.85
2019-01-28T23:58:29.051Z,3.25
